Arlee, Montana
Current Conditions -  °F | °C
As of 6:53 PM on Saturday 25 Oct 2014 (Local Time) from KMSO Reporting Station
Clear Clear  
Wind Chill: 44°   Ceiling: Unl
Heat Index: 46°   Visibility: 10mi
Dew Point: 43°   Wind: 5mph
Humidity: 89%   Direction: NA
Pressure: 29.69"   Gusts: NA
Location:  47.16°N, 114.09°W
Report Text: KMSO 260053Z VRB04KT 10SM CLR 08/06 A2969 RMK AO2 SLP063 T00780061
Loading
Personal Weather Stations






























Interactive Weather Map
Tropical Storm Tracking
New forecast layout! Learn more

10-Day Weather Forecast

Advertisements
Track Severe Weather on mobile